Time;durP1;ratioP1;P1;durP2;ratioP2;P2;SDS_P1;SDS_P2;PMS_P1;PMS_P2;Temp;Humidity;BMP_temperature;BMP_pressure;BME280_temperature;BME280_humidity;BME280_pressure;Samples;Min_cycle;Max_cycle;Signal;HPM_P1;HPM_P2
2024/04/19 00:00:35;;;;;;;12.50;7.03;;;;;;;-145.69;72.71;52335.47;5526362;26;20222;-80
2024/04/19 00:03:03;;;;;;;10.00;6.13;;;;;;;-145.69;72.05;52343.38;5526527;26;20225;-80
2024/04/19 00:05:28;;;;;;;10.10;5.73;;;;;;;-145.69;72.12;52369.13;5526345;26;20222;-78
2024/04/19 00:07:59;;;;;;;10.77;6.20;;;;;;;-145.69;71.66;52349.31;5526489;26;20225;-79
2024/04/19 00:10:25;;;;;;;10.90;5.80;;;;;;;-145.69;72.02;52337.44;5526261;26;20221;-79
2024/04/19 00:12:55;;;;;;;11.07;6.20;;;;;;;-145.69;72.18;52353.28;5525887;26;20229;-79
2024/04/19 00:15:21;;;;;;;8.63;5.70;;;;;;;-145.69;72.00;52357.25;5526068;26;20221;-79
2024/04/19 00:17:49;;;;;;;8.97;5.37;;;;;;;-145.69;72.23;52341.41;5524982;26;20233;-78
2024/04/19 00:20:14;;;;;;;12.33;5.97;;;;;;;-145.69;72.71;52388.94;5526209;26;20222;-78
2024/04/19 00:22:42;;;;;;;9.70;5.60;;;;;;;-145.69;72.88;52375.06;5525576;26;20272;-78
2024/04/19 00:25:13;;;;;;;10.33;5.83;;;;;;;-145.69;72.84;52341.41;5525954;26;20234;-78
2024/04/19 00:27:39;;;;;;;10.93;6.03;;;;;;;-145.69;72.89;52353.28;5525397;26;20576;-79
2024/04/19 00:30:08;;;;;;;10.57;6.10;;;;;;;-145.69;73.38;52343.38;5507679;25;20234;-80
2024/04/19 00:32:34;;;;;;;11.40;6.00;;;;;;;-145.69;72.96;52377.06;5489018;26;20748;-79
2024/04/19 00:35:02;;;;;;;11.67;6.50;;;;;;;-145.69;72.69;52357.25;5488009;26;20234;-78
2024/04/19 00:37:27;;;;;;;10.73;5.70;;;;;;;-145.69;73.03;52339.44;5488919;26;20268;-78
2024/04/19 00:39:55;;;;;;;10.57;6.07;;;;;;;-145.69;73.24;52349.31;5488911;26;20226;-79
2024/04/19 00:42:24;;;;;;;11.23;6.23;;;;;;;-145.69;73.40;52353.28;5512849;26;20276;-79
2024/04/19 00:44:52;;;;;;;9.93;5.90;;;;;;;-145.69;72.55;52355.28;5525731;26;20578;-80
2024/04/19 00:47:17;;;;;;;13.77;6.57;;;;;;;-145.69;72.66;52345.38;5525514;26;20264;-79
2024/04/19 00:49:46;;;;;;;15.57;6.03;;;;;;;-145.69;72.73;52341.41;5525503;26;20222;-79
2024/04/19 00:52:15;;;;;;;11.63;6.03;;;;;;;-145.69;72.35;52371.13;5525450;26;20222;-78
2024/04/19 00:54:41;;;;;;;11.00;5.77;;;;;;;-145.69;72.18;52373.09;5524442;26;20217;-80
2024/04/19 00:57:09;;;;;;;8.70;5.30;;;;;;;-145.69;72.01;52345.38;5524544;26;20268;-79
2024/04/19 00:59:38;;;;;;;11.57;6.43;;;;;;;-145.69;71.61;52369.13;5524834;26;20221;-79
2024/04/19 01:02:06;;;;;;;8.63;5.17;;;;;;;-145.69;71.67;52337.44;5525468;26;20245;-79
2024/04/19 01:04:32;;;;;;;8.40;5.37;;;;;;;-145.69;71.80;52353.28;5525314;26;20696;-79
2024/04/19 01:07:00;;;;;;;9.17;5.13;;;;;;;-145.69;72.05;52351.31;5524922;26;20225;-79
2024/04/19 01:09:26;;;;;;;21.77;5.30;;;;;;;-145.69;72.02;52373.09;5524821;26;20291;-79
2024/04/19 01:11:54;;;;;;;12.07;5.87;;;;;;;-145.69;72.09;52341.41;5523931;26;20226;-79
2024/04/19 01:14:20;;;;;;;10.43;5.20;;;;;;;-145.69;72.09;52367.16;5524697;26;20268;-78
2024/04/19 01:16:51;;;;;;;11.70;6.47;;;;;;;-145.69;72.02;52361.22;5524720;26;20229;-79
2024/04/19 01:19:16;;;;;;;12.33;6.03;;;;;;;-145.69;72.48;52353.28;5487869;26;20260;-80
2024/04/19 01:21:44;;;;;;;13.93;6.70;;;;;;;-145.69;73.15;52377.06;5488175;26;20226;-80
2024/04/19 01:24:19;;;;;;;10.70;6.13;;;;;;;-145.69;73.40;52321.59;5490650;26;20265;-79
2024/04/19 01:26:47;;;;;;;17.17;7.60;;;;;;;-145.69;74.24;52351.31;5524987;26;20730;-79
2024/04/19 01:29:15;;;;;;;16.03;7.50;;;;;;;-145.69;74.13;52343.38;5524720;26;20298;-79
2024/04/19 01:31:41;;;;;;;13.67;6.40;;;;;;;-145.69;73.94;52343.38;5524194;26;20222;-79
2024/04/19 01:34:09;;;;;;;13.47;6.73;;;;;;;-145.69;74.15;52325.56;5524141;26;20272;-80
2024/04/19 01:36:35;;;;;;;16.53;7.87;;;;;;;-145.69;73.68;52345.38;5524879;26;20354;-79
2024/04/19 01:39:03;;;;;;;14.93;7.37;;;;;;;-145.69;74.08;52325.56;5524220;26;20705;-78
2024/04/19 01:41:28;;;;;;;16.73;7.07;;;;;;;-145.69;73.80;52335.47;5524042;26;20225;-79
2024/04/19 01:43:59;;;;;;;16.97;8.03;;;;;;;-145.69;74.13;52321.59;5524556;26;20711;-79
2024/04/19 01:46:24;;;;;;;18.33;8.57;;;;;;;-145.69;73.72;52349.31;5524323;26;20268;-79
2024/04/19 01:48:52;;;;;;;21.33;8.10;;;;;;;-145.69;73.25;52353.28;5524323;26;20230;-79
2024/04/19 01:51:18;;;;;;;16.73;6.73;;;;;;;-145.69;73.33;52339.44;5522925;26;20221;-80
2024/04/19 01:53:46;;;;;;;13.13;7.43;;;;;;;-145.69;73.03;52351.31;5523901;26;20221;-79
2024/04/19 01:56:11;;;;;;;12.43;6.77;;;;;;;-145.69;72.71;52367.16;5524275;26;20587;-77
2024/04/19 01:58:39;;;;;;;14.37;7.00;;;;;;;-145.69;72.53;52317.66;5523999;26;20233;-78
2024/04/19 02:01:08;;;;;;;13.77;7.03;;;;;;;-145.69;72.57;52337.44;5524260;26;20222;-79
2024/04/19 02:03:36;;;;;;;16.43;6.87;;;;;;;-145.69;72.38;52381.00;5524186;26;20256;-79
2024/04/19 02:06:07;;;;;;;11.97;7.23;;;;;;;-145.69;72.77;52345.38;5523902;26;20222;-79
2024/04/19 02:08:35;;;;;;;15.00;7.33;;;;;;;-145.69;72.44;52353.28;5523842;26;20233;-78
2024/04/19 02:11:01;;;;;;;12.67;7.03;;;;;;;-145.69;72.96;52335.47;5527452;26;20221;-78
2024/04/19 02:13:30;;;;;;;14.83;6.70;;;;;;;-145.69;73.33;52381.00;5527843;26;20225;-78
2024/04/19 02:15:55;;;;;;;16.83;7.80;;;;;;;-145.69;73.20;52361.22;5527015;26;20222;-78
2024/04/19 02:18:26;;;;;;;16.63;7.80;;;;;;;-145.69;73.52;52357.25;5527779;26;20268;-79
2024/04/19 02:20:52;;;;;;;15.03;7.83;;;;;;;-145.69;73.35;52357.25;5527700;26;20217;-79
2024/04/19 02:23:42;;;;;;;16.03;8.03;;;;;;;-145.69;73.28;52351.31;5525025;25;20301;-79
2024/04/19 02:26:11;;;;;;;17.53;8.10;;;;;;;-145.69;73.00;52361.22;5527304;26;20225;-79
2024/04/19 02:31:26;;;;;;;18.27;8.07;;;;;;;-145.69;72.83;52353.28;5530808;26;20260;-79
2024/04/19 02:33:57;;;;;;;17.77;8.03;;;;;;;-145.69;73.08;52349.31;5527578;26;20306;-79
2024/04/19 02:36:25;;;;;;;14.33;7.90;;;;;;;-145.69;72.79;52347.34;5526664;26;20229;-80
2024/04/19 02:38:54;;;;;;;14.30;7.80;;;;;;;-145.69;72.78;52339.44;5527141;26;20225;-79
2024/04/19 02:41:22;;;;;;;15.60;7.80;;;;;;;-145.69;72.80;52351.31;5526617;26;20222;-79
2024/04/19 02:43:50;;;;;;;13.47;7.53;;;;;;;-145.69;72.32;52347.34;5527390;26;20233;-79
2024/04/19 02:46:19;;;;;;;16.87;7.60;;;;;;;-145.69;72.96;52321.59;5526751;26;20217;-77
2024/04/19 02:48:45;;;;;;;15.73;7.30;;;;;;;-145.69;72.78;52373.09;5527234;26;20321;-80
2024/04/19 02:51:16;;;;;;;13.10;7.03;;;;;;;-145.69;72.98;52357.25;5527350;26;20218;-80
2024/04/19 02:53:42;;;;;;;13.87;6.90;;;;;;;-145.69;73.15;52377.06;5527256;26;20217;-80
2024/04/19 02:56:11;;;;;;;14.60;7.43;;;;;;;-145.69;73.01;52357.25;5526182;26;20333;-79
2024/04/19 02:58:39;;;;;;;14.17;7.30;;;;;;;-145.69;73.10;52335.47;5526703;26;20221;-78
2024/04/19 03:01:07;;;;;;;14.47;7.47;;;;;;;-145.69;73.11;52321.59;5527098;26;20271;-80
2024/04/19 03:03:35;;;;;;;15.63;7.83;;;;;;;-145.69;73.07;52373.09;5527006;26;20701;-79
2024/04/19 03:06:03;;;;;;;16.00;8.07;;;;;;;-145.69;72.93;52377.06;5526381;26;20582;-79
2024/04/19 03:08:34;;;;;;;17.70;7.83;;;;;;;-145.69;72.78;52341.41;5526636;26;20234;-79
2024/04/19 03:11:04;;;;;;;18.40;8.17;;;;;;;-145.69;73.23;52345.38;5527237;26;20235;-78
2024/04/19 03:13:32;;;;;;;17.07;8.00;;;;;;;-145.69;73.31;52373.09;5526392;26;20225;-79
2024/04/19 03:16:08;;;;;;;15.13;7.67;;;;;;;-145.69;72.73;52367.16;5527115;26;20221;-79
2024/04/19 03:18:37;;;;;;;15.63;7.20;;;;;;;-145.69;72.80;52367.16;5526385;26;20221;-79
2024/04/19 03:21:05;;;;;;;19.13;7.83;;;;;;;-145.69;72.97;52365.16;5525801;26;20738;-79
2024/04/19 03:23:36;;;;;;;14.20;6.67;;;;;;;-145.69;73.17;52331.50;5526829;26;20259;-78
2024/04/19 03:26:05;;;;;;;17.63;8.23;;;;;;;-145.69;73.34;52347.34;5526575;26;20275;-79
2024/04/19 03:28:33;;;;;;;15.53;7.83;;;;;;;-145.69;72.81;52355.28;5526968;26;20221;-78
2024/04/19 03:31:01;;;;;;;14.77;7.37;;;;;;;-145.69;73.08;52353.28;5526138;26;20545;-79
2024/04/19 03:33:29;;;;;;;15.23;8.00;;;;;;;-145.69;73.14;52357.25;5526290;26;20269;-78
2024/04/19 03:35:57;;;;;;;18.87;7.90;;;;;;;-145.69;72.95;52337.44;5526267;26;20708;-78
2024/04/19 03:38:28;;;;;;;17.00;8.43;;;;;;;-145.69;72.86;52361.22;5526627;26;20226;-79
2024/04/19 03:40:59;;;;;;;17.20;8.30;;;;;;;-145.69;72.88;52309.72;5526331;26;20229;-78
2024/04/19 03:43:32;;;;;;;16.03;7.50;;;;;;;-145.69;72.76;52357.25;5514122;25;20253;-79
2024/04/19 03:45:58;;;;;;;14.43;7.37;;;;;;;-145.69;73.02;52315.66;5502609;26;20225;-79
2024/04/19 03:48:27;;;;;;;13.97;7.60;;;;;;;-145.69;72.81;52335.47;5502463;26;20629;-78
2024/04/19 03:50:55;;;;;;;14.43;6.70;;;;;;;-145.69;73.25;52363.19;5525036;26;20233;-80
2024/04/19 03:53:23;;;;;;;14.90;7.13;;;;;;;-145.69;73.05;52337.44;5524080;26;20230;-80
2024/04/19 03:55:52;;;;;;;19.60;7.77;;;;;;;-145.69;72.82;52343.38;5527103;26;20712;-80
2024/04/19 03:58:22;;;;;;;13.57;7.07;;;;;;;-145.69;72.87;52333.47;5526657;26;20218;-80
2024/04/19 04:00:50;;;;;;;13.70;6.60;;;;;;;-145.69;72.83;52351.31;5527103;26;20229;-80
2024/04/19 04:03:16;;;;;;;15.57;8.60;;;;;;;-145.69;72.98;52309.72;5526025;26;21029;-80
2024/04/19 04:05:51;;;;;;;14.70;7.50;;;;;;;-145.69;72.94;52365.16;5525189;26;20237;-78
2024/04/19 04:08:19;;;;;;;15.90;7.90;;;;;;;-145.69;72.69;52377.06;5526030;26;20229;-78
2024/04/19 04:10:48;;;;;;;17.43;8.30;;;;;;;-145.69;72.61;52343.38;5526189;26;20269;-78
2024/04/19 04:13:16;;;;;;;15.90;8.07;;;;;;;-145.69;72.63;52341.41;5526162;26;20244;-78
2024/04/19 04:15:47;;;;;;;14.83;7.97;;;;;;;-145.69;72.98;52347.34;5526895;26;20214;-79
2024/04/19 04:18:12;;;;;;;19.23;7.67;;;;;;;-145.69;73.09;52345.38;5526396;26;20252;-79
2024/04/19 04:20:40;;;;;;;15.60;7.60;;;;;;;-145.69;73.02;52357.25;5526748;26;20684;-79
2024/04/19 04:23:08;;;;;;;19.83;7.80;;;;;;;-145.69;73.30;52341.41;5526794;26;20218;-79
2024/04/19 04:25:37;;;;;;;21.07;9.03;;;;;;;-145.69;73.18;52353.28;5526658;26;20229;-79
2024/04/19 04:28:06;;;;;;;23.77;9.77;;;;;;;-145.69;73.18;52367.16;5526013;26;20217;-78
2024/04/19 04:30:35;;;;;;;18.00;8.23;;;;;;;-145.69;73.31;52349.31;5526424;26;20260;-78
2024/04/19 04:33:06;;;;;;;21.57;9.27;;;;;;;-145.69;73.02;52369.13;5526282;26;20538;-78
2024/04/19 04:35:36;;;;;;;17.40;8.20;;;;;;;-145.69;73.63;52357.25;5525638;26;20762;-79
2024/04/19 04:38:04;;;;;;;17.17;8.70;;;;;;;-145.69;73.09;52351.31;5526249;26;20275;-78
2024/04/19 04:40:33;;;;;;;17.97;8.60;;;;;;;-145.69;73.11;52343.38;5526402;26;20217;-78
2024/04/19 04:43:02;;;;;;;16.03;8.33;;;;;;;-145.69;72.88;52347.34;5526018;26;20317;-78
2024/04/19 04:45:31;;;;;;;18.00;9.37;;;;;;;-145.69;72.89;52353.28;5526127;26;20217;-78
2024/04/19 04:47:59;;;;;;;22.17;8.50;;;;;;;-145.69;72.90;52353.28;5526025;26;20257;-78
2024/04/19 04:50:30;;;;;;;16.27;8.43;;;;;;;-145.69;72.90;52317.66;5526329;26;20263;-78
2024/04/19 04:53:01;;;;;;;17.20;8.13;;;;;;;-145.69;73.00;52361.22;5526169;26;20770;-79
2024/04/19 04:55:30;;;;;;;17.50;8.23;;;;;;;-145.69;73.02;52333.47;5525740;26;20217;-78
2024/04/19 04:57:58;;;;;;;17.07;8.23;;;;;;;-145.69;73.32;52327.53;5525677;26;20700;-78
2024/04/19 05:00:28;;;;;;;16.00;7.70;;;;;;;-145.69;73.19;52349.31;5526181;26;20263;-79
2024/04/19 05:02:57;;;;;;;16.77;8.30;;;;;;;-145.69;73.30;52357.25;5525888;26;20218;-79
2024/04/19 05:05:25;;;;;;;16.50;7.97;;;;;;;-145.69;73.25;52337.44;5525227;26;20229;-79
2024/04/19 05:07:56;;;;;;;18.50;9.30;;;;;;;-145.69;73.10;52315.66;5526144;26;20276;-79
2024/04/19 05:10:24;;;;;;;19.30;8.27;;;;;;;-145.69;73.59;52335.47;5526276;26;20260;-79
2024/04/19 05:12:52;;;;;;;22.13;9.30;;;;;;;-145.69;73.65;52329.53;5526125;26;20217;-79
2024/04/19 05:15:20;;;;;;;21.27;9.37;;;;;;;-145.69;73.34;52341.41;5525982;26;20264;-79
2024/04/19 05:17:48;;;;;;;18.83;9.30;;;;;;;-145.69;73.39;52367.16;5525943;26;20217;-78
2024/04/19 05:20:17;;;;;;;18.27;8.33;;;;;;;-145.69;73.40;52337.44;5525363;26;20259;-78
2024/04/19 05:22:45;;;;;;;18.13;8.80;;;;;;;-145.69;72.75;52329.53;5525626;26;20217;-79
2024/04/19 05:25:15;;;;;;;19.13;8.73;;;;;;;-145.69;71.40;52317.66;5525737;26;20267;-79
2024/04/19 05:27:43;;;;;;;15.80;7.57;;;;;;;-145.69;71.93;52319.63;5525217;26;20229;-78
2024/04/19 05:30:12;;;;;;;15.73;7.97;;;;;;;-145.69;71.99;52353.28;5525614;26;20244;-79
2024/04/19 05:32:40;;;;;;;17.23;8.27;;;;;;;-145.69;70.78;52361.22;5525303;26;20583;-79
2024/04/19 05:35:08;;;;;;;18.03;8.40;;;;;;;-145.69;70.50;52329.53;5525246;26;20260;-79
2024/04/19 05:37:36;;;;;;;17.30;8.13;;;;;;;-145.69;70.44;52341.41;5525196;26;20225;-79
2024/04/19 05:40:04;;;;;;;15.93;7.93;;;;;;;-145.69;69.86;52361.22;5524504;26;20720;-78
2024/04/19 05:42:35;;;;;;;16.73;8.03;;;;;;;-145.69;67.58;52337.44;5524728;26;20257;-79
2024/04/19 05:45:03;;;;;;;14.43;7.40;;;;;;;-145.69;66.63;52327.53;5527137;26;20256;-79
2024/04/19 05:47:31;;;;;;;13.13;6.97;;;;;;;-145.69;67.50;52333.47;5528284;26;20582;-78
2024/04/19 05:50:00;;;;;;;14.60;7.97;;;;;;;-145.69;66.33;52390.91;5528587;26;20217;-78
2024/04/19 05:52:28;;;;;;;11.73;6.47;;;;;;;-145.69;66.14;52309.72;5528931;26;20213;-79
2024/04/19 05:54:56;;;;;;;13.40;7.43;;;;;;;-145.69;65.32;52321.59;5528245;26;20229;-79
2024/04/19 05:57:24;;;;;;;11.20;6.40;;;;;;;-145.69;65.43;52347.34;5527900;26;20260;-79
2024/04/19 05:59:54;;;;;;;12.70;6.43;;;;;;;-145.69;64.02;52321.59;5527849;25;20277;-79
2024/04/19 06:02:22;;;;;;;13.33;6.97;;;;;;;-145.69;62.35;52325.56;5528529;26;20319;-79
2024/04/19 06:04:50;;;;;;;8.60;5.60;;;;;;;-145.69;61.38;52327.53;5528386;26;20724;-79
2024/04/19 06:07:21;;;;;;;11.77;6.07;;;;;;;-145.69;62.87;52313.69;5527922;26;20260;-79
2024/04/19 06:09:49;;;;;;;13.80;5.90;;;;;;;-145.69;62.98;52293.88;5528842;26;20214;-79
2024/04/19 06:12:17;;;;;;;14.33;5.80;;;;;;;-145.69;62.92;52278.03;5529460;26;20259;-78
2024/04/19 06:14:45;;;;;;;9.63;5.77;;;;;;;-145.69;62.83;52291.91;5528624;26;20217;-79
2024/04/19 06:17:16;;;;;;;11.00;5.27;;;;;;;-145.69;62.74;52309.72;5528384;26;20248;-79
2024/04/19 06:19:44;;;;;;;9.20;5.83;;;;;;;-145.69;62.25;52331.50;5527886;26;20260;-80
2024/04/19 06:22:12;;;;;;;10.20;5.13;;;;;;;-145.69;62.16;52293.88;5528232;26;20218;-78
2024/04/19 06:24:40;;;;;;;10.83;5.80;;;;;;;-145.69;61.35;52323.59;5527677;26;20217;-79
2024/04/19 06:27:08;;;;;;;12.17;5.50;;;;;;;-145.69;60.14;52319.63;5528009;26;20217;-78
2024/04/19 06:29:36;;;;;;;9.37;5.13;;;;;;;-145.69;60.22;52313.69;5528540;26;20221;-78
2024/04/19 06:32:05;;;;;;;9.47;4.80;;;;;;;-145.69;59.10;52309.72;5528429;26;20217;-78
2024/04/19 06:34:35;;;;;;;10.10;5.57;;;;;;;-145.69;58.47;52287.94;5527876;26;20217;-78
2024/04/19 06:37:04;;;;;;;7.70;4.73;;;;;;;-145.69;58.49;52307.75;5528530;26;20230;-79
2024/04/19 06:39:32;;;;;;;11.80;4.97;;;;;;;-145.69;58.40;52317.66;5528038;26;20217;-79
2024/04/19 06:42:00;;;;;;;9.23;5.10;;;;;;;-145.69;59.05;52335.47;5527818;26;20257;-77
2024/04/19 06:44:28;;;;;;;8.50;4.87;;;;;;;-145.69;57.80;52285.97;5527383;26;20271;-79
2024/04/19 06:46:56;;;;;;;11.10;5.10;;;;;;;-145.69;56.80;52317.66;5527232;26;20226;-77
2024/04/19 06:49:24;;;;;;;7.03;4.27;;;;;;;-145.69;56.72;52335.47;5527933;26;20260;-78
2024/04/19 06:51:55;;;;;;;8.83;4.60;;;;;;;-145.69;56.31;52303.78;5527408;26;20688;-78
2024/04/19 06:54:23;;;;;;;10.17;4.90;;;;;;;-145.69;56.14;52315.66;5527842;26;20256;-78
2024/04/19 06:56:51;;;;;;;7.20;3.90;;;;;;;-145.69;55.38;52301.81;5525923;26;20217;-78
2024/04/19 06:59:19;;;;;;;7.00;4.10;;;;;;;-145.69;55.74;52329.53;5527701;26;20218;-80
2024/04/19 07:01:47;;;;;;;6.63;4.37;;;;;;;-145.69;55.16;52299.81;5528122;26;20218;-78
2024/04/19 07:04:15;;;;;;;8.80;4.50;;;;;;;-145.69;55.77;52315.66;5527683;26;20214;-78
2024/04/19 07:06:41;;;;;;;8.43;4.37;;;;;;;-145.69;55.79;52293.88;5527021;26;20755;-78
2024/04/19 07:09:13;;;;;;;6.80;3.90;;;;;;;-145.69;53.91;52274.06;5527218;26;20253;-78
2024/04/19 07:11:41;;;;;;;6.57;4.00;;;;;;;-145.69;53.95;52297.84;5527676;26;20219;-77
2024/04/19 07:14:10;;;;;;;9.00;3.80;;;;;;;-145.69;52.79;52305.75;5526346;26;20276;-78
2024/04/19 07:16:38;;;;;;;6.80;3.93;;;;;;;-145.69;52.84;52297.84;5527515;26;20230;-78
2024/04/19 07:19:06;;;;;;;7.23;4.30;;;;;;;-145.69;53.43;52309.72;5527827;26;20222;-77
2024/04/19 07:21:34;;;;;;;8.67;4.57;;;;;;;-145.69;52.25;52299.81;5527260;26;20742;-78
2024/04/19 07:24:02;;;;;;;6.70;4.20;;;;;;;-145.69;53.07;52305.75;5527204;26;20218;-78
2024/04/19 07:26:34;;;;;;;8.67;4.47;;;;;;;-145.69;52.51;52303.78;5526868;26;20233;-77
2024/04/19 07:29:02;;;;;;;9.27;4.78;;;;;;;-145.69;52.92;52289.91;5526808;26;20388;-78
2024/04/19 07:31:30;;;;;;;9.80;4.60;;;;;;;-145.69;52.03;52276.06;5527433;26;20217;-78
2024/04/19 07:33:58;;;;;;;7.07;4.40;;;;;;;-145.69;51.82;52305.75;5527955;26;20218;-77
2024/04/19 07:36:26;;;;;;;7.17;4.27;;;;;;;-145.69;52.00;52280.00;5527052;26;20217;-78
2024/04/19 07:38:54;;;;;;;6.53;4.10;;;;;;;-145.69;51.81;52299.81;5527112;26;20238;-79
2024/04/19 07:41:23;;;;;;;8.97;4.27;;;;;;;-145.69;51.91;52285.97;5527015;26;20217;-77
2024/04/19 07:43:53;;;;;;;7.00;4.10;;;;;;;-145.69;52.19;52287.94;5526013;26;20724;-78
2024/04/19 07:46:21;;;;;;;8.60;4.27;;;;;;;-145.69;51.89;52278.03;5527052;26;20549;-77
2024/04/19 07:48:49;;;;;;;7.20;3.57;;;;;;;-145.69;51.48;52266.16;5526810;26;20576;-78
2024/04/19 07:51:17;;;;;;;7.97;4.20;;;;;;;-145.69;50.93;52270.13;5527591;26;20217;-78
2024/04/19 07:53:45;;;;;;;10.93;4.20;;;;;;;-145.69;52.51;52270.13;5527085;26;20218;-77
2024/04/19 07:56:13;;;;;;;7.20;4.10;;;;;;;-145.69;50.28;52305.75;5527038;26;20218;-77
2024/04/19 07:58:42;;;;;;;5.97;3.80;;;;;;;-145.69;51.33;52315.66;5526678;26;20264;-77
2024/04/19 08:01:12;;;;;;;7.53;4.37;;;;;;;-145.69;52.34;52246.34;5527007;26;20217;-77
2024/04/19 08:03:39;;;;;;;6.13;3.87;;;;;;;-145.69;51.50;52262.19;5527441;26;20357;-78
2024/04/19 08:06:08;;;;;;;5.57;3.70;;;;;;;-145.69;49.96;52262.19;5527047;26;20744;-79
2024/04/19 08:08:36;;;;;;;8.03;4.20;;;;;;;-145.69;50.44;52276.06;5526162;26;20230;-78
2024/04/19 08:11:04;;;;;;;6.27;3.80;;;;;;;-145.69;50.87;52291.91;5495901;26;20230;-78
2024/04/19 08:13:32;;;;;;;6.47;4.20;;;;;;;-145.69;51.08;52270.13;5497343;26;20229;-78
2024/04/19 08:16:00;;;;;;;11.07;3.93;;;;;;;-145.69;50.53;52272.09;5526756;26;20217;-80
2024/04/19 08:18:31;;;;;;;5.20;3.17;;;;;;;-145.69;52.17;52258.22;5526425;26;20546;-78
2024/04/19 08:20:59;;;;;;;6.53;3.80;;;;;;;-145.69;51.53;52270.13;5526605;26;20246;-76
2024/04/19 08:23:27;;;;;;;7.03;3.90;;;;;;;-145.69;51.08;52270.13;5526407;26;20218;-78
2024/04/19 08:25:55;;;;;;;6.73;3.77;;;;;;;-145.69;51.05;52270.13;5526265;26;20233;-76
2024/04/19 08:28:25;;;;;;;6.23;3.40;;;;;;;-145.69;51.26;52230.50;5526361;26;20256;-77
2024/04/19 08:30:54;;;;;;;7.13;4.07;;;;;;;-145.69;50.25;52270.13;5526400;26;20213;-77
2024/04/19 08:33:22;;;;;;;5.90;3.50;;;;;;;-145.69;49.69;52274.06;5526156;26;20244;-77
2024/04/19 08:35:57;;;;;;;5.33;3.47;;;;;;;-145.69;51.20;52242.38;5526143;26;20222;-79
2024/04/19 08:38:26;;;;;;;6.83;3.70;;;;;;;-145.69;50.77;52246.34;5526118;26;20369;-77
2024/04/19 08:40:58;;;;;;;9.13;3.50;;;;;;;-145.69;52.39;52246.34;5526137;26;20712;-77
2024/04/19 08:43:28;;;;;;;6.87;3.90;;;;;;;-145.69;53.59;52270.13;5526360;26;20735;-75
2024/04/19 08:45:58;;;;;;;6.37;3.47;;;;;;;-145.69;55.01;52301.81;5526305;26;20217;-77
2024/04/19 08:48:26;;;;;;;6.67;3.87;;;;;;;-145.69;55.20;52283.97;5525790;26;20273;-77
2024/04/19 08:51:00;;;;;;;6.13;4.00;;;;;;;-145.69;56.54;52297.84;5525907;26;20217;-77
2024/04/19 08:53:28;;;;;;;7.27;4.20;;;;;;;-145.69;57.80;52266.16;5525893;26;20316;-76
2024/04/19 08:55:57;;;;;;;8.67;3.70;;;;;;;-145.69;57.17;52289.91;5525436;26;20217;-76
2024/04/19 08:58:25;;;;;;;7.40;4.30;;;;;;;-145.69;57.72;52305.75;5525847;26;20225;-77
2024/04/19 09:00:53;;;;;;;6.97;4.27;;;;;;;-145.69;58.00;52289.91;5526181;26;20213;-79
2024/04/19 09:03:21;;;;;;;5.63;3.77;;;;;;;-145.69;58.16;52331.50;5525623;26;20213;-78
2024/04/19 09:05:49;;;;;;;9.53;4.87;;;;;;;-145.69;58.71;52315.66;5525670;26;20716;-78
2024/04/19 09:08:20;;;;;;;7.13;4.23;;;;;;;-145.69;57.03;52282.00;5525945;26;20260;-78
2024/04/19 09:10:52;;;;;;;6.47;4.30;;;;;;;-145.69;57.66;52293.88;5525019;26;20290;-78
2024/04/19 09:13:20;;;;;;;8.60;4.93;;;;;;;-145.69;56.77;52305.75;5526396;26;20253;-77
2024/04/19 09:15:48;;;;;;;7.30;4.33;;;;;;;-145.69;56.56;52283.97;5526103;26;20702;-78
2024/04/19 09:18:17;;;;;;;9.67;4.30;;;;;;;-145.69;55.38;52307.75;5524187;26;20268;-80
2024/04/19 09:20:44;;;;;;;6.70;4.23;;;;;;;-145.69;55.37;52276.06;5529013;26;20217;-80
2024/04/19 09:23:13;;;;;;;7.83;4.57;;;;;;;-145.69;55.45;52280.00;5529108;26;20593;-79
2024/04/19 09:25:41;;;;;;;7.43;4.53;;;;;;;-145.69;55.26;52266.16;5529098;26;20279;-80
2024/04/19 09:28:12;;;;;;;6.13;3.80;;;;;;;-145.69;55.67;52276.06;5529376;26;20298;-81
2024/04/19 09:30:43;;;;;;;7.37;4.37;;;;;;;-145.69;55.08;52272.09;5528759;26;20214;-81
2024/04/19 09:33:11;;;;;;;8.17;4.03;;;;;;;-145.69;54.30;52270.13;5529424;26;20620;-82
2024/04/19 09:35:39;;;;;;;8.13;4.10;;;;;;;-145.69;53.96;52291.91;5528582;26;20587;-80
2024/04/19 09:38:08;;;;;;;7.07;4.13;;;;;;;-145.69;52.97;52309.72;5529309;26;20218;-81
2024/04/19 09:40:38;;;;;;;6.23;4.07;;;;;;;-145.69;53.65;52289.91;5529008;26;20317;-80
2024/04/19 09:43:09;;;;;;;7.40;4.00;;;;;;;-145.69;53.81;52266.16;5528730;26;20217;-83
2024/04/19 09:45:43;;;;;;;26.60;13.87;;;;;;;-145.69;54.16;52276.06;5528671;26;20560;-80
2024/04/19 09:48:12;;;;;;;6.87;3.67;;;;;;;-145.69;51.89;52289.91;5529181;26;20323;-84
2024/04/19 09:50:41;;;;;;;6.47;3.60;;;;;;;-145.69;54.05;52244.38;5528496;26;20229;-80
2024/04/19 09:53:15;;;;;;;7.27;3.87;;;;;;;-145.69;53.05;52333.47;5528942;26;20218;-79
2024/04/19 09:55:55;;;;;;;6.27;3.93;;;;;;;-145.69;53.66;52293.88;5528820;26;20213;-78
2024/04/19 09:58:27;;;;;;;4.53;3.20;;;;;;;-145.69;52.53;52274.06;5528436;26;20259;-80
2024/04/19 10:00:57;;;;;;;5.60;3.90;;;;;;;-145.69;52.79;52293.88;5521092;26;20281;-79
2024/04/19 10:03:26;;;;;;;5.43;3.80;;;;;;;-145.69;53.49;52305.75;5505068;25;20776;-77
2024/04/19 10:05:54;;;;;;;5.93;3.73;;;;;;;-145.69;53.35;52254.28;5528332;26;20804;-78
2024/04/19 10:08:25;;;;;;;4.57;3.50;;;;;;;-145.69;53.25;52270.13;5528591;26;20256;-80
2024/04/19 10:10:54;;;;;;;4.97;3.30;;;;;;;-145.69;52.68;52319.63;5528760;26;20256;-78
2024/04/19 10:13:24;;;;;;;5.13;2.97;;;;;;;-145.69;53.61;52268.13;5527944;26;20222;-78
2024/04/19 10:15:58;;;;;;;5.07;3.20;;;;;;;-145.69;53.32;52258.22;5528747;26;20214;-78
2024/04/19 10:18:26;;;;;;;5.20;3.40;;;;;;;-145.69;53.79;52301.81;5527588;26;20232;-78
2024/04/19 10:20:55;;;;;;;4.90;3.53;;;;;;;-145.69;54.82;52305.75;5528658;26;20700;-79
2024/04/19 10:23:23;;;;;;;4.57;3.10;;;;;;;-145.69;54.43;52274.06;5528105;26;20260;-78
2024/04/19 10:25:52;;;;;;;4.40;2.97;;;;;;;-145.69;53.44;52280.00;5528240;26;20279;-77
2024/04/19 10:28:20;;;;;;;4.90;3.07;;;;;;;-145.69;53.40;52297.84;5528615;26;20218;-78
2024/04/19 10:30:50;;;;;;;3.10;2.67;;;;;;;-145.69;54.05;52293.88;5528421;26;20249;-80
2024/04/19 10:33:22;;;;;;;4.97;3.30;;;;;;;-145.69;54.63;52319.63;5527964;26;20543;-77
2024/04/19 10:35:51;;;;;;;5.93;3.20;;;;;;;-145.69;55.29;52278.03;5528036;26;20218;-79
2024/04/19 10:38:20;;;;;;;5.10;2.80;;;;;;;-145.69;54.31;52305.75;5528004;26;20248;-77
2024/04/19 10:40:48;;;;;;;4.17;2.73;;;;;;;-145.69;53.95;52301.81;5528007;26;20244;-79
2024/04/19 10:43:16;;;;;;;3.73;2.60;;;;;;;-145.69;53.78;52266.16;5528179;26;20218;-78
2024/04/19 10:45:46;;;;;;;5.30;3.17;;;;;;;-145.69;54.55;52260.22;5527922;26;20217;-77
2024/04/19 10:48:15;;;;;;;4.50;2.63;;;;;;;-145.69;53.98;52278.03;5527994;26;20217;-77
2024/04/19 10:50:46;;;;;;;4.67;2.47;;;;;;;-145.69;54.46;52248.34;5527612;26;20712;-78
2024/04/19 10:53:16;;;;;;;3.40;2.47;;;;;;;-145.69;54.70;52262.19;5513121;25;20273;-77
2024/04/19 10:55:45;;;;;;;3.70;2.53;;;;;;;-145.69;54.65;52293.88;5507644;26;20772;-76
2024/04/19 10:58:14;;;;;;;4.83;3.23;;;;;;;-145.69;56.31;52283.97;5526040;26;20221;-78
2024/04/19 11:00:45;;;;;;;5.07;2.83;;;;;;;-145.69;55.59;52270.13;5527651;26;20218;-79
2024/04/19 11:03:14;;;;;;;2.93;2.37;;;;;;;-145.69;56.01;52274.06;5527453;26;20217;-80
2024/04/19 11:05:42;;;;;;;5.23;2.70;;;;;;;-145.69;55.58;52291.91;5527589;26;20229;-77
2024/04/19 11:08:13;;;;;;;4.03;2.60;;;;;;;-145.69;56.55;52313.69;5527100;26;20276;-78
2024/04/19 11:10:41;;;;;;;4.60;2.60;;;;;;;-145.69;55.57;52270.13;5526674;26;20255;-78
2024/04/19 11:13:10;;;;;;;3.83;2.63;;;;;;;-145.69;55.53;52289.91;5527182;26;20252;-78
2024/04/19 11:15:39;;;;;;;4.57;2.67;;;;;;;-145.69;54.90;52262.19;5528078;26;20218;-79
2024/04/19 11:18:09;;;;;;;3.40;2.27;;;;;;;-145.69;54.56;52262.19;5526929;26;20218;-78
2024/04/19 11:20:37;;;;;;;2.93;2.17;;;;;;;-145.69;54.00;52305.75;5527291;26;20218;-78